Ida — C4CZ2 — position and weather

sailwx.info

Track history (hours):
 
Tides and Currents Weather Stations Pressure Air Temp Water Temp Dewpoint Dewpoint Depression Visibility Wind Speed Wind Dir Waves Ship Positions

Ida

Last reported at 2017-Nov-23 05:30 UTC. Time now 2017-Nov-23 05:42 UTC.
Position N 55°01' E 012°42'.

Length 82 m; draft 4.2 m.

Type: Cargo ship. MMSI: 210319000.

Date/timePositionNaut miles runAvg speedWind from/ knotsBaromVisibWave heightAir tempDewpointWater temp
2017-Nov-23 05:30N 55°01' E 012°42'12 8.8
2017-Nov-23 04:08N 54°48' E 012°44'3 8.7
2017-Nov-23 03:50N 54°46' E 012°45'6 8.1
2017-Nov-23 03:06N 54°43' E 012°37'1 8.2
2017-Nov-23 03:00N 54°42' E 012°35'7 8.5
2017-Nov-23 02:09N 54°38' E 012°25'9 8.0
2017-Nov-23 01:01N 54°30' E 012°17'0 8.9
2017-Nov-23 01:01N 54°30' E 012°17'4 8.2
2017-Nov-23 00:31N 54°26' E 012°14'4 8.2
2017-Nov-23 00:00N 54°23' E 012°09'4 8.6
2017-Nov-22 23:30N 54°19' E 012°07'4 8.7
2017-Nov-22 23:00N 54°15' E 012°06'5 8.2
2017-Nov-22 22:23N 54°10' E 012°06'1 2.6
2017-Nov-22 22:00N 54°09' E 012°07'0 0.0
2017-Nov-22 20:54N 54°09' E 012°07'0 0.0
2017-Nov-22 20:24N 54°09' E 012°07'0 0.0
2017-Nov-22 20:00N 54°09' E 012°07'0 0.0
2017-Nov-22 19:12N 54°09' E 012°07'  
2017-Nov-20 00:30N 53°57' E 007°52'137 5.5
2017-Nov-18 23:25N 53°00' E 004°22'85 6.3
2017-Nov-18 09:56N 51°45' E 003°15'2 5.4
2017-Nov-18 09:30N 51°43' E 003°17'3 5.0
2017-Nov-18 08:59N 51°41' E 003°18'3 5.7
2017-Nov-18 08:30N 51°38' E 003°21'3 6.3
2017-Nov-18 07:59N 51°36' E 003°23'3 6.5
2017-Nov-18 07:30N 51°33' E 003°25'4 7.1
2017-Nov-18 07:00N 51°30' E 003°29'4 8.4
2017-Nov-18 06:30N 51°27' E 003°33'4 7.9
2017-Nov-18 06:00N 51°27' E 003°40'510.5
2017-Nov-18 05:31N 51°22' E 003°45'4 7.6
2017-Nov-18 05:00N 51°20' E 003°49'1 1.0
2017-Nov-18 04:31N 51°19' E 003°49'4 7.0
2017-Nov-18 04:00N 51°16' E 003°50'4 9.0
2017-Nov-18 03:31N 51°11' E 003°48'3 5.5
2017-Nov-18 03:00N 51°09' E 003°48'0 0.0
2017-Nov-18 02:28N 51°09' E 003°48'0 0.0
2017-Nov-18 01:58N 51°09' E 003°48'0 0.0
2017-Nov-18 01:28N 51°09' E 003°48'0 0.0
2017-Nov-18 00:58N 51°09' E 003°48'0 0.0
2017-Nov-18 00:28N 51°09' E 003°48'0 0.0
2017-Nov-17 23:58N 51°09' E 003°48'0 0.0
2017-Nov-17 23:28N 51°09' E 003°48'0 0.0
2017-Nov-17 22:58N 51°09' E 003°48'0 0.0
2017-Nov-17 22:25N 51°09' E 003°48'0 0.0
2017-Nov-17 21:58N 51°09' E 003°48'0 0.0
2017-Nov-17 21:28N 51°09' E 003°48'0 0.0
2017-Nov-17 20:58N 51°09' E 003°48'0 0.0
2017-Nov-17 20:19N 51°09' E 003°48'0 0.0
2017-Nov-17 19:49N 51°09' E 003°48'0 0.0
2017-Nov-17 19:28N 51°09' E 003°48'0 0.0
2017-Nov-17 18:58N 51°09' E 003°48'0 0.0
2017-Nov-17 18:28N 51°09' E 003°48'0 0.0
2017-Nov-17 17:55N 51°09' E 003°48'0 0.0
2017-Nov-17 17:25N 51°09' E 003°48'0 0.0
2017-Nov-17 16:58N 51°09' E 003°48'0 0.0
2017-Nov-17 16:28N 51°09' E 003°48'0 0.0
2017-Nov-17 15:58N 51°09' E 003°48'0 0.0
2017-Nov-17 15:22N 51°09' E 003°48'0 0.0
2017-Nov-17 14:58N 51°09' E 003°48'0 0.0
2017-Nov-17 14:30N 51°09' E 003°48'2 3.6
2017-Nov-17 14:01N 51°10' E 003°48'4 7.5
2017-Nov-17 13:30N 51°14' E 003°49'4 7.8
2017-Nov-17 13:01N 51°18' E 003°50'2 3.6
2017-Nov-17 12:31N 51°20' E 003°49'0 0.0
2017-Nov-17 12:01N 51°20' E 003°49'1 1.3
2017-Nov-17 11:30N 51°20' E 003°49'4 8.1
2017-Nov-17 11:01N 51°23' E 003°43'5 9.8
2017-Nov-17 10:30N 51°25' E 003°37'5 9.3
2017-Nov-17 10:01N 51°28' E 003°31'510.1
2017-Nov-17 09:30N 51°32' E 003°25'10 9.2
2017-Nov-17 08:27N 51°40' E 003°17'217 6.3
2017-Nov-15 22:03N 54°01' E 007°51'0 8.3
2017-Nov-15 22:00N 54°01' E 007°52'4 8.1
2017-Nov-15 21:30N 54°01' E 007°58'4 8.0
2017-Nov-15 21:01N 54°01' E 008°05'4 7.7
2017-Nov-15 20:30N 54°01' E 008°12'4 7.4
2017-Nov-15 20:01N 54°01' E 008°18'3 6.8
2017-Nov-15 19:30N 53°60' E 008°23'3 6.4
2017-Nov-15 19:00N 53°59' E 008°29'3 6.2
2017-Nov-15 18:30N 53°58' E 008°34'4 7.4
2017-Nov-15 18:00N 53°56' E 008°39'510.2
2017-Nov-15 17:30N 53°52' E 008°44'510.5
2017-Nov-15 17:01N 53°51' E 008°52'611.5
2017-Nov-15 16:30N 53°52' E 009°02'4 8.8
2017-Nov-15 16:01N 53°54' E 009°09'0 0.2
2017-Nov-15 15:30N 53°54' E 009°09'1 2.1
2017-Nov-15 15:00N 53°54' E 009°10'3 7.0
2017-Nov-15 14:30N 53°57' E 009°14'4 8.2
2017-Nov-15 14:00N 54°01' E 009°18'5 8.6
2017-Nov-15 13:25N 54°06' E 009°20'3 8.2
2017-Nov-15 13:00N 54°09' E 009°21'4 8.6
2017-Nov-15 12:30N 54°11' E 009°28'4 8.5
2017-Nov-15 12:00N 54°13' E 009°34'4 7.2
2017-Nov-15 11:31N 54°16' E 009°37'2 4.2
2017-Nov-15 11:00N 54°17' E 009°39'4 7.6
2017-Nov-15 10:30N 54°20' E 009°44'4 8.1
2017-Nov-15 10:00N 54°22' E 009°50'29 5.1
2017-Nov-15 04:20N 54°34' E 010°35'3 8.3
2017-Nov-15 04:00N 54°35' E 010°40'4 8.3
2017-Nov-15 03:30N 54°35' E 010°47'4 8.3
2017-Nov-15 03:01N 54°35' E 010°54'4 8.4
2017-Nov-15 02:31N 54°36' E 011°01'4 8.3
2017-Nov-15 02:01N 54°36' E 011°08'4 8.1
2017-Nov-15 01:31N 54°35' E 011°15'4 8.3
2017-Nov-15 01:01N 54°33' E 011°21'4 8.0
2017-Nov-15 00:30N 54°32' E 011°28'4 8.2
2017-Nov-15 00:00N 54°30' E 011°34'4 8.4
2017-Nov-14 23:31N 54°29' E 011°41'4 8.4
2017-Nov-14 23:00N 54°27' E 011°47'4 8.2
2017-Nov-14 22:30N 54°27' E 011°55'4 8.0
2017-Nov-14 22:01N 54°27' E 012°01'4 7.6
2017-Nov-14 21:31N 54°27' E 012°08'72 6.3
2017-Nov-14 10:04N 55°03' E 013°56'1 6.9
2017-Nov-14 09:57N 55°03' E 013°58'3 7.2
2017-Nov-14 09:29N 55°04' E 014°03'5 7.5
2017-Nov-14 08:49N 55°08' E 014°09'4 7.9
2017-Nov-14 08:21N 55°11' E 014°13'5 8.1
2017-Nov-14 07:43N 55°14' E 014°18'2 8.1
2017-Nov-14 07:29N 55°16' E 014°21'4 8.4
2017-Nov-14 07:00N 55°19' E 014°25'5 8.8
2017-Nov-14 06:28N 55°23' E 014°30'4 8.6
2017-Nov-14 05:58N 55°26' E 014°35'5 8.6
2017-Nov-14 05:23N 55°28' E 014°43'3 8.5
2017-Nov-14 05:00N 55°30' E 014°48'4 8.4
2017-Nov-14 04:29N 55°32' E 014°55'4 8.2
2017-Nov-14 03:59N 55°33' E 015°02'4 8.2
2017-Nov-14 03:30N 55°34' E 015°09'6 8.3
2017-Nov-14 02:44N 55°35' E 015°20'12 8.5
2017-Nov-14 01:16N 55°40' E 015°40'2 8.7
2017-Nov-14 01:00N 55°41' E 015°44'4 8.7
2017-Nov-14 00:31N 55°43' E 015°51'4 8.5
2017-Nov-14 00:00N 55°44' E 015°58'4 8.5
2017-Nov-13 23:31N 55°46' E 016°05'4 8.6
2017-Nov-13 23:00N 55°48' E 016°12'4 8.7
2017-Nov-13 22:30N 55°49' E 016°19'4 8.5
2017-Nov-13 22:01N 55°51' E 016°26'  
Track history (hours):
 
Tides and Currents Weather Stations Pressure Air Temp Water Temp Dewpoint Dewpoint Depression Visibility Wind Speed Wind Dir Waves Ship Positions

Ida

Last reported at 2017-Nov-23 05:30 UTC. Time now 2017-Nov-23 05:42 UTC.
Position N 55°01' E 012°42'.

Length 82 m; draft 4.2 m.

Type: Cargo ship. MMSI: 210319000.

Date/timePositionNaut miles runAvg speedWind from/ knotsBaromVisibWave heightAir tempDewpointWater temp
2017-Nov-23 05:30N 55°01' E 012°42'12 8.8
2017-Nov-23 04:08N 54°48' E 012°44'3 8.7
2017-Nov-23 03:50N 54°46' E 012°45'6 8.1
2017-Nov-23 03:06N 54°43' E 012°37'1 8.2
2017-Nov-23 03:00N 54°42' E 012°35'7 8.5
2017-Nov-23 02:09N 54°38' E 012°25'9 8.0
2017-Nov-23 01:01N 54°30' E 012°17'0 8.9
2017-Nov-23 01:01N 54°30' E 012°17'4 8.2
2017-Nov-23 00:31N 54°26' E 012°14'4 8.2
2017-Nov-23 00:00N 54°23' E 012°09'4 8.6
2017-Nov-22 23:30N 54°19' E 012°07'4 8.7
2017-Nov-22 23:00N 54°15' E 012°06'5 8.2
2017-Nov-22 22:23N 54°10' E 012°06'1 2.6
2017-Nov-22 22:00N 54°09' E 012°07'0 0.0
2017-Nov-22 20:54N 54°09' E 012°07'0 0.0
2017-Nov-22 20:24N 54°09' E 012°07'0 0.0
2017-Nov-22 20:00N 54°09' E 012°07'0 0.0
2017-Nov-22 19:12N 54°09' E 012°07'  
2017-Nov-20 00:30N 53°57' E 007°52'137 5.5
2017-Nov-18 23:25N 53°00' E 004°22'85 6.3
2017-Nov-18 09:56N 51°45' E 003°15'2 5.4
2017-Nov-18 09:30N 51°43' E 003°17'3 5.0
2017-Nov-18 08:59N 51°41' E 003°18'3 5.7
2017-Nov-18 08:30N 51°38' E 003°21'3 6.3
2017-Nov-18 07:59N 51°36' E 003°23'3 6.5
2017-Nov-18 07:30N 51°33' E 003°25'4 7.1
2017-Nov-18 07:00N 51°30' E 003°29'4 8.4
2017-Nov-18 06:30N 51°27' E 003°33'4 7.9
2017-Nov-18 06:00N 51°27' E 003°40'510.5
2017-Nov-18 05:31N 51°22' E 003°45'4 7.6
2017-Nov-18 05:00N 51°20' E 003°49'1 1.0
2017-Nov-18 04:31N 51°19' E 003°49'4 7.0
2017-Nov-18 04:00N 51°16' E 003°50'4 9.0
2017-Nov-18 03:31N 51°11' E 003°48'3 5.5
2017-Nov-18 03:00N 51°09' E 003°48'0 0.0
2017-Nov-18 02:28N 51°09' E 003°48'0 0.0
2017-Nov-18 01:58N 51°09' E 003°48'0 0.0
2017-Nov-18 01:28N 51°09' E 003°48'0 0.0
2017-Nov-18 00:58N 51°09' E 003°48'0 0.0
2017-Nov-18 00:28N 51°09' E 003°48'0 0.0
2017-Nov-17 23:58N 51°09' E 003°48'0 0.0
2017-Nov-17 23:28N 51°09' E 003°48'0 0.0
2017-Nov-17 22:58N 51°09' E 003°48'0 0.0
2017-Nov-17 22:25N 51°09' E 003°48'0 0.0
2017-Nov-17 21:58N 51°09' E 003°48'0 0.0
2017-Nov-17 21:28N 51°09' E 003°48'0 0.0
2017-Nov-17 20:58N 51°09' E 003°48'0 0.0
2017-Nov-17 20:19N 51°09' E 003°48'0 0.0
2017-Nov-17 19:49N 51°09' E 003°48'0 0.0
2017-Nov-17 19:28N 51°09' E 003°48'0 0.0
2017-Nov-17 18:58N 51°09' E 003°48'0 0.0
2017-Nov-17 18:28N 51°09' E 003°48'0 0.0
2017-Nov-17 17:55N 51°09' E 003°48'0 0.0
2017-Nov-17 17:25N 51°09' E 003°48'0 0.0
2017-Nov-17 16:58N 51°09' E 003°48'0 0.0
2017-Nov-17 16:28N 51°09' E 003°48'0 0.0
2017-Nov-17 15:58N 51°09' E 003°48'0 0.0
2017-Nov-17 15:22N 51°09' E 003°48'0 0.0
2017-Nov-17 14:58N 51°09' E 003°48'0 0.0
2017-Nov-17 14:30N 51°09' E 003°48'2 3.6
2017-Nov-17 14:01N 51°10' E 003°48'4 7.5
2017-Nov-17 13:30N 51°14' E 003°49'4 7.8
2017-Nov-17 13:01N 51°18' E 003°50'2 3.6
2017-Nov-17 12:31N 51°20' E 003°49'0 0.0
2017-Nov-17 12:01N 51°20' E 003°49'1 1.3
2017-Nov-17 11:30N 51°20' E 003°49'4 8.1
2017-Nov-17 11:01N 51°23' E 003°43'5 9.8
2017-Nov-17 10:30N 51°25' E 003°37'5 9.3
2017-Nov-17 10:01N 51°28' E 003°31'510.1
2017-Nov-17 09:30N 51°32' E 003°25'10 9.2
2017-Nov-17 08:27N 51°40' E 003°17'217 6.3
2017-Nov-15 22:03N 54°01' E 007°51'0 8.3
2017-Nov-15 22:00N 54°01' E 007°52'4 8.1
2017-Nov-15 21:30N 54°01' E 007°58'4 8.0
2017-Nov-15 21:01N 54°01' E 008°05'4 7.7
2017-Nov-15 20:30N 54°01' E 008°12'4 7.4
2017-Nov-15 20:01N 54°01' E 008°18'3 6.8
2017-Nov-15 19:30N 53°60' E 008°23'3 6.4
2017-Nov-15 19:00N 53°59' E 008°29'3 6.2
2017-Nov-15 18:30N 53°58' E 008°34'4 7.4
2017-Nov-15 18:00N 53°56' E 008°39'510.2
2017-Nov-15 17:30N 53°52' E 008°44'510.5
2017-Nov-15 17:01N 53°51' E 008°52'611.5
2017-Nov-15 16:30N 53°52' E 009°02'4 8.8
2017-Nov-15 16:01N 53°54' E 009°09'0 0.2
2017-Nov-15 15:30N 53°54' E 009°09'1 2.1
2017-Nov-15 15:00N 53°54' E 009°10'3 7.0
2017-Nov-15 14:30N 53°57' E 009°14'4 8.2
2017-Nov-15 14:00N 54°01' E 009°18'5 8.6
2017-Nov-15 13:25N 54°06' E 009°20'3 8.2
2017-Nov-15 13:00N 54°09' E 009°21'4 8.6
2017-Nov-15 12:30N 54°11' E 009°28'4 8.5
2017-Nov-15 12:00N 54°13' E 009°34'4 7.2
2017-Nov-15 11:31N 54°16' E 009°37'2 4.2
2017-Nov-15 11:00N 54°17' E 009°39'4 7.6
2017-Nov-15 10:30N 54°20' E 009°44'4 8.1
2017-Nov-15 10:00N 54°22' E 009°50'29 5.1
2017-Nov-15 04:20N 54°34' E 010°35'3 8.3
2017-Nov-15 04:00N 54°35' E 010°40'4 8.3
2017-Nov-15 03:30N 54°35' E 010°47'4 8.3
2017-Nov-15 03:01N 54°35' E 010°54'4 8.4
2017-Nov-15 02:31N 54°36' E 011°01'4 8.3
2017-Nov-15 02:01N 54°36' E 011°08'4 8.1
2017-Nov-15 01:31N 54°35' E 011°15'4 8.3
2017-Nov-15 01:01N 54°33' E 011°21'4 8.0
2017-Nov-15 00:30N 54°32' E 011°28'4 8.2
2017-Nov-15 00:00N 54°30' E 011°34'4 8.4
2017-Nov-14 23:31N 54°29' E 011°41'4 8.4
2017-Nov-14 23:00N 54°27' E 011°47'4 8.2
2017-Nov-14 22:30N 54°27' E 011°55'4 8.0
2017-Nov-14 22:01N 54°27' E 012°01'4 7.6
2017-Nov-14 21:31N 54°27' E 012°08'72 6.3
2017-Nov-14 10:04N 55°03' E 013°56'1 6.9
2017-Nov-14 09:57N 55°03' E 013°58'3 7.2
2017-Nov-14 09:29N 55°04' E 014°03'5 7.5
2017-Nov-14 08:49N 55°08' E 014°09'4 7.9
2017-Nov-14 08:21N 55°11' E 014°13'5 8.1
2017-Nov-14 07:43N 55°14' E 014°18'2 8.1
2017-Nov-14 07:29N 55°16' E 014°21'4 8.4
2017-Nov-14 07:00N 55°19' E 014°25'5 8.8
2017-Nov-14 06:28N 55°23' E 014°30'4 8.6
2017-Nov-14 05:58N 55°26' E 014°35'5 8.6
2017-Nov-14 05:23N 55°28' E 014°43'3 8.5
2017-Nov-14 05:00N 55°30' E 014°48'4 8.4
2017-Nov-14 04:29N 55°32' E 014°55'4 8.2
2017-Nov-14 03:59N 55°33' E 015°02'4 8.2
2017-Nov-14 03:30N 55°34' E 015°09'6 8.3
2017-Nov-14 02:44N 55°35' E 015°20'12 8.5
2017-Nov-14 01:16N 55°40' E 015°40'2 8.7
2017-Nov-14 01:00N 55°41' E 015°44'4 8.7
2017-Nov-14 00:31N 55°43' E 015°51'4 8.5
2017-Nov-14 00:00N 55°44' E 015°58'4 8.5
2017-Nov-13 23:31N 55°46' E 016°05'4 8.6
2017-Nov-13 23:00N 55°48' E 016°12'4 8.7
2017-Nov-13 22:30N 55°49' E 016°19'4 8.5
2017-Nov-13 22:01N 55°51' E 016°26'  

Dump ship's entire track history